Time;durP1;ratioP1;P1;durP2;ratioP2;P2;SDS_P1;SDS_P2;PMS_P1;PMS_P2;Temp;Humidity;BMP_temperature;BMP_pressure;BME280_temperature;BME280_humidity;BME280_pressure;Samples;Min_cycle;Max_cycle;Signal;HPM_P1;HPM_P2
2023/06/11 00:01:19;;;;;;;6.53;5.43;;;27.10;51.70;;;;;;4899855;29;20185;-87
2023/06/11 00:03:52;;;;;;;5.67;5.17;;;27.10;51.80;;;;;;4905924;29;20416;-86
2023/06/11 00:06:20;;;;;;;5.27;4.87;;;27.10;51.80;;;;;;4901697;29;20168;-86
2023/06/11 00:08:47;;;;;;;5.47;4.97;;;27.10;51.90;;;;;;4900999;29;20189;-87
2023/06/11 00:11:13;;;;;;;5.93;5.37;;;27.10;51.90;;;;;;4901565;29;20181;-87
2023/06/11 00:13:39;;;;;;;6.40;5.47;;;27.10;51.90;;;;;;4900677;29;20192;-86
2023/06/11 00:16:06;;;;;;;10.53;5.63;;;27.00;51.90;;;;;;4916732;29;20576;-86
2023/06/11 00:18:32;;;;;;;5.63;5.03;;;27.00;51.90;;;;;;4915925;29;20213;-86
2023/06/11 00:20:58;;;;;;;5.70;4.90;;;27.00;51.90;;;;;;4916813;29;20177;-86
2023/06/11 00:23:24;;;;;;;6.20;5.60;;;27.00;52.00;;;;;;4899832;29;20572;-86
2023/06/11 00:25:54;;;;;;;5.40;4.90;;;26.90;51.90;;;;;;4898068;29;20243;-86
2023/06/11 00:28:20;;;;;;;5.63;5.13;;;27.00;52.00;;;;;;4896901;29;20236;-86
2023/06/11 00:30:46;;;;;;;5.63;5.07;;;26.90;52.00;;;;;;4897939;29;20253;-86
2023/06/11 00:33:11;;;;;;;5.63;5.10;;;26.90;52.00;;;;;;4896961;29;20173;-87
2023/06/11 00:35:37;;;;;;;5.20;4.70;;;26.90;52.00;;;;;;4897654;29;20196;-87
2023/06/11 00:38:05;;;;;;;6.23;5.17;;;26.90;52.10;;;;;;4897508;29;20185;-87
2023/06/11 00:40:32;;;;;;;5.70;5.20;;;26.80;52.10;;;;;;4899162;29;20244;-87
2023/06/11 00:42:57;;;;;;;5.37;4.87;;;26.80;52.10;;;;;;4899449;29;20181;-86
2023/06/11 00:45:24;;;;;;;5.27;4.73;;;26.80;52.10;;;;;;4917075;29;20188;-87
2023/06/11 00:47:50;;;;;;;5.47;4.97;;;26.80;52.10;;;;;;4900089;29;20272;-87
2023/06/11 00:50:16;;;;;;;5.73;5.13;;;26.80;52.20;;;;;;4900275;29;20181;-87
2023/06/11 00:52:43;;;;;;;5.40;5.00;;;26.80;52.20;;;;;;4899645;29;20236;-87
2023/06/11 00:55:11;;;;;;;5.33;4.93;;;26.80;52.30;;;;;;4899995;29;20577;-87
2023/06/11 00:57:41;;;;;;;5.90;4.80;;;26.80;52.30;;;;;;4899422;29;20181;-87
2023/06/11 01:00:12;;;;;;;5.37;4.87;;;26.70;52.20;;;;;;4899537;29;20320;-87
2023/06/11 01:02:57;;;;;;;5.60;5.10;;;26.70;52.30;;;;;;4898382;29;20180;-87
2023/06/11 01:05:25;;;;;;;5.83;5.27;;;26.70;52.30;;;;;;4898052;29;20199;-87
2023/06/11 01:07:55;;;;;;;5.43;4.93;;;26.70;52.30;;;;;;4897106;29;20285;-87
2023/06/11 01:10:21;;;;;;;5.60;5.10;;;26.70;52.30;;;;;;4897202;29;20251;-87
2023/06/11 01:12:48;;;;;;;5.67;5.17;;;26.70;52.30;;;;;;4897566;29;20265;-86
2023/06/11 01:15:14;;;;;;;5.60;5.10;;;26.70;52.30;;;;;;4898979;29;20617;-86
2023/06/11 01:18:00;;;;;;;5.60;5.10;;;26.70;52.40;;;;;;4899342;29;20326;-87
2023/06/11 01:20:35;;;;;;;5.83;5.23;;;26.70;52.50;;;;;;4899463;29;20177;-86
2023/06/11 01:23:33;;;;;;;6.17;5.53;;;26.70;52.50;;;;;;4916748;29;20624;-87
2023/06/11 01:26:02;;;;;;;5.70;5.20;;;26.70;52.40;;;;;;4914271;29;20538;-87
2023/06/11 01:28:33;;;;;;;5.80;5.20;;;26.60;52.40;;;;;;4915292;29;20188;-87
2023/06/11 01:31:03;;;;;;;5.60;5.10;;;26.60;52.40;;;;;;4930805;29;20545;-86
2023/06/11 01:33:34;;;;;;;5.40;4.90;;;26.60;52.40;;;;;;4899254;29;20279;-87
2023/06/11 01:36:00;;;;;;;6.00;5.43;;;26.60;52.40;;;;;;4899301;29;20261;-87
2023/06/11 01:38:34;;;;;;;6.30;5.70;;;26.60;52.40;;;;;;4901541;29;20212;-86
2023/06/11 01:41:03;;;;;;;5.87;5.37;;;26.50;52.40;;;;;;4904354;29;20258;-87
2023/06/11 01:43:29;;;;;;;6.50;5.50;;;26.50;52.40;;;;;;4903694;29;20180;-87
2023/06/11 01:45:56;;;;;;;6.83;5.50;;;26.50;52.40;;;;;;4904798;29;20173;-87
2023/06/11 01:48:22;;;;;;;5.60;5.10;;;26.50;52.50;;;;;;4904552;29;20328;-87
2023/06/11 01:50:47;;;;;;;5.70;5.20;;;26.50;52.50;;;;;;4904264;29;20267;-87
2023/06/11 01:53:14;;;;;;;5.70;5.20;;;26.40;52.60;;;;;;4904573;29;20343;-87
2023/06/11 01:55:40;;;;;;;5.60;5.10;;;26.40;52.50;;;;;;4920470;29;20193;-87
2023/06/11 01:58:06;;;;;;;6.00;5.50;;;26.40;52.50;;;;;;4903889;29;20566;-87
2023/06/11 02:00:31;;;;;;;6.07;5.47;;;26.40;52.60;;;;;;4903866;29;20360;-87
2023/06/11 02:02:59;;;;;;;5.57;5.07;;;26.40;53.00;;;;;;4904419;29;20173;-87
2023/06/11 02:05:25;;;;;;;6.07;5.53;;;26.40;52.70;;;;;;4903552;29;20359;-87
2023/06/11 02:07:51;;;;;;;6.20;5.70;;;26.40;52.60;;;;;;4905562;29;20295;-88
2023/06/11 02:10:17;;;;;;;5.87;5.37;;;26.40;52.60;;;;;;4904902;29;20181;-87
2023/06/11 02:12:42;;;;;;;6.30;5.53;;;26.40;52.80;;;;;;4905674;29;20185;-87
2023/06/11 02:15:13;;;;;;;6.53;5.83;;;26.30;52.90;;;;;;4905677;29;20181;-87
2023/06/11 02:17:38;;;;;;;6.27;5.60;;;26.30;52.90;;;;;;4921312;29;20472;-87
2023/06/11 02:20:06;;;;;;;6.50;5.90;;;26.20;52.80;;;;;;4904693;29;20600;-87
2023/06/11 02:22:33;;;;;;;6.47;5.87;;;26.30;52.90;;;;;;4904619;29;20493;-86
2023/06/11 02:24:59;;;;;;;6.00;5.43;;;26.30;52.90;;;;;;4904889;29;20644;-87
2023/06/11 02:27:25;;;;;;;6.47;5.87;;;26.30;52.90;;;;;;4904657;29;20193;-86
2023/06/11 02:29:51;;;;;;;6.77;6.07;;;26.30;52.80;;;;;;4904139;29;20461;-86
2023/06/11 02:32:17;;;;;;;7.27;6.10;;;26.30;52.80;;;;;;4920812;29;20188;-87
2023/06/11 02:34:43;;;;;;;7.07;5.90;;;26.30;52.80;;;;;;4905049;29;20216;-87
2023/06/11 02:37:09;;;;;;;6.67;6.07;;;26.20;52.80;;;;;;4903881;29;20191;-87
2023/06/11 02:39:34;;;;;;;6.27;5.67;;;26.20;52.90;;;;;;4920352;29;20213;-87
2023/06/11 02:42:00;;;;;;;6.10;5.60;;;26.10;52.90;;;;;;4904835;29;20187;-87
2023/06/11 02:44:26;;;;;;;6.53;5.50;;;26.10;52.90;;;;;;4904778;29;20189;-87
2023/06/11 02:46:52;;;;;;;7.13;5.83;;;26.10;52.90;;;;;;4903102;29;20181;-87
2023/06/11 02:49:17;;;;;;;6.30;5.70;;;26.10;53.00;;;;;;4901652;29;20203;-87
2023/06/11 02:51:43;;;;;;;6.80;5.80;;;26.10;53.00;;;;;;4918330;29;20580;-86
2023/06/11 02:54:09;;;;;;;6.57;5.93;;;26.10;53.00;;;;;;4919106;29;20188;-87
2023/06/11 02:56:34;;;;;;;8.80;6.37;;;26.00;53.00;;;;;;4902051;29;20196;-87
2023/06/11 02:59:00;;;;;;;7.70;6.10;;;26.00;53.10;;;;;;4918185;29;20204;-87
2023/06/11 03:01:26;;;;;;;7.70;6.17;;;26.00;53.10;;;;;;4901388;29;20601;-87
2023/06/11 03:03:52;;;;;;;6.30;5.70;;;26.00;53.00;;;;;;4901706;29;20389;-86
2023/06/11 03:06:18;;;;;;;6.70;6.00;;;26.00;53.00;;;;;;4903206;29;20181;-87
2023/06/11 03:08:44;;;;;;;7.73;5.80;;;26.00;53.00;;;;;;4903155;29;20247;-87
2023/06/11 03:11:10;;;;;;;7.80;5.83;;;26.00;53.00;;;;;;4911329;29;20461;-86
2023/06/11 03:13:36;;;;;;;6.67;6.07;;;25.90;53.10;;;;;;4918440;29;20185;-86
2023/06/11 03:16:04;;;;;;;7.73;6.30;;;25.90;53.10;;;;;;4902907;29;20420;-87
2023/06/11 03:18:30;;;;;;;7.77;5.87;;;25.90;53.10;;;;;;4919306;29;20217;-87
2023/06/11 03:20:56;;;;;;;7.10;6.50;;;25.90;53.20;;;;;;4902361;29;20189;-86
2023/06/11 03:23:23;;;;;;;7.30;6.20;;;25.90;53.10;;;;;;4902562;29;20207;-86
2023/06/11 03:25:48;;;;;;;7.57;6.37;;;25.90;53.20;;;;;;4903501;29;20173;-86
2023/06/11 03:28:14;;;;;;;6.30;5.70;;;25.90;53.70;;;;;;4918245;29;20208;-86
2023/06/11 03:30:46;;;;;;;6.37;5.77;;;25.90;53.30;;;;;;4903496;29;20450;-87
2023/06/11 03:33:12;;;;;;;6.53;5.93;;;25.80;53.30;;;;;;4901992;29;20188;-86
2023/06/11 03:35:37;;;;;;;6.40;5.80;;;25.80;53.30;;;;;;4902394;29;20197;-86
2023/06/11 03:38:03;;;;;;;6.80;6.20;;;25.80;53.30;;;;;;4901362;29;20172;-86
2023/06/11 03:40:29;;;;;;;6.60;6.00;;;25.70;53.30;;;;;;4917425;29;20208;-86
2023/06/11 03:42:55;;;;;;;6.90;6.20;;;25.70;53.30;;;;;;4901717;29;20271;-86
2023/06/11 03:45:21;;;;;;;6.57;5.93;;;25.70;53.40;;;;;;4901431;29;20573;-86
2023/06/11 03:47:51;;;;;;;9.20;5.73;;;25.70;53.40;;;;;;4902057;29;20281;-87
2023/06/11 03:50:17;;;;;;;6.67;6.00;;;25.70;53.40;;;;;;4902030;29;20185;-86
2023/06/11 03:52:43;;;;;;;6.93;6.23;;;25.70;53.80;;;;;;4902246;29;20207;-87
2023/06/11 03:55:09;;;;;;;6.37;5.77;;;25.60;53.40;;;;;;4902718;29;20185;-87
2023/06/11 03:57:35;;;;;;;6.97;6.37;;;25.70;53.40;;;;;;4903007;29;20192;-87
2023/06/11 04:00:01;;;;;;;6.73;6.13;;;25.70;53.50;;;;;;4918806;29;20220;-86
2023/06/11 04:02:27;;;;;;;6.67;5.97;;;25.70;53.50;;;;;;4901554;29;20187;-87
2023/06/11 04:04:53;;;;;;;5.93;5.43;;;25.70;53.50;;;;;;4902640;29;20279;-87
2023/06/11 04:07:19;;;;;;;6.50;5.90;;;25.70;53.80;;;;;;4901926;29;20220;-87
2023/06/11 04:09:45;;;;;;;6.70;6.07;;;25.70;53.50;;;;;;4902127;29;20235;-87
2023/06/11 04:12:11;;;;;;;6.10;5.47;;;25.70;53.50;;;;;;4902766;29;20211;-87
2023/06/11 04:14:37;;;;;;;7.10;6.40;;;25.70;53.50;;;;;;4903772;29;20221;-87
2023/06/11 04:17:02;;;;;;;6.30;5.77;;;25.70;53.50;;;;;;4920304;29;20184;-87
2023/06/11 04:19:28;;;;;;;7.47;6.40;;;25.70;53.50;;;;;;4902993;29;20209;-87
2023/06/11 04:21:54;;;;;;;7.30;6.60;;;25.70;53.50;;;;;;4919283;29;20263;-86
2023/06/11 04:24:20;;;;;;;7.07;6.00;;;25.70;53.50;;;;;;4902915;29;20493;-87
2023/06/11 04:26:48;;;;;;;6.60;6.00;;;25.70;53.50;;;;;;4901811;29;20594;-86
2023/06/11 04:29:15;;;;;;;6.17;5.40;;;25.70;53.50;;;;;;4901565;29;20243;-87
2023/06/11 04:31:46;;;;;;;6.53;5.60;;;25.70;53.50;;;;;;4901437;29;20636;-87
2023/06/11 04:34:13;;;;;;;7.23;6.30;;;25.80;53.60;;;;;;4901020;29;20291;-87
2023/06/11 04:36:40;;;;;;;7.03;5.97;;;25.80;53.50;;;;;;4900635;29;20532;-87
2023/06/11 04:39:07;;;;;;;6.27;5.50;;;25.80;53.50;;;;;;4901113;29;20208;-87
2023/06/11 04:41:36;;;;;;;6.53;5.93;;;25.80;53.50;;;;;;4901258;29;20199;-87
2023/06/11 04:44:05;;;;;;;6.40;5.80;;;25.80;53.50;;;;;;4902531;29;20173;-86
2023/06/11 04:46:32;;;;;;;6.40;5.73;;;25.90;53.50;;;;;;4900740;29;20185;-87
2023/06/11 04:49:04;;;;;;;6.03;5.43;;;25.90;53.50;;;;;;4900522;29;20589;-87
2023/06/11 04:51:40;;;;;;;6.20;5.60;;;25.90;53.40;;;;;;4917942;29;20177;-88
2023/06/11 04:54:11;;;;;;;7.13;6.03;;;25.90;53.40;;;;;;4934829;29;20176;-87
2023/06/11 04:56:37;;;;;;;6.47;5.83;;;26.00;53.60;;;;;;4899948;29;20191;-87
2023/06/11 04:59:05;;;;;;;6.53;5.90;;;26.00;53.50;;;;;;4899534;29;20311;-87
2023/06/11 05:01:32;;;;;;;7.20;6.50;;;26.10;53.50;;;;;;4915554;29;20169;-87
2023/06/11 05:03:58;;;;;;;7.60;6.00;;;26.10;53.50;;;;;;4899709;29;20177;-86
2023/06/11 05:06:24;;;;;;;6.80;6.20;;;26.10;53.50;;;;;;4898848;29;20447;-87
2023/06/11 05:08:52;;;;;;;6.83;6.20;;;26.20;53.40;;;;;;4898132;29;20633;-87
2023/06/11 05:11:17;;;;;;;6.27;5.70;;;26.20;53.40;;;;;;4898017;29;20208;-87
2023/06/11 05:13:43;;;;;;;5.73;5.23;;;26.20;53.20;;;;;;4897918;29;20231;-87
2023/06/11 05:16:09;;;;;;;6.60;5.83;;;26.30;53.30;;;;;;4898626;29;20533;-87
2023/06/11 05:18:35;;;;;;;7.20;6.50;;;26.30;53.20;;;;;;4914725;29;20368;-86
2023/06/11 05:21:01;;;;;;;6.80;6.20;;;26.30;53.20;;;;;;4898072;29;20184;-87
2023/06/11 05:23:31;;;;;;;6.80;6.20;;;26.40;53.80;;;;;;4899369;29;20185;-87
2023/06/11 05:26:01;;;;;;;6.60;6.00;;;26.40;53.60;;;;;;4898927;29;20169;-87
2023/06/11 05:28:27;;;;;;;6.80;6.20;;;26.40;53.30;;;;;;4915670;29;20165;-87
2023/06/11 05:30:53;;;;;;;6.47;5.73;;;26.40;53.60;;;;;;4899048;29;20379;-87
2023/06/11 05:33:20;;;;;;;6.47;5.87;;;26.40;53.10;;;;;;4900119;29;20184;-87
2023/06/11 05:35:46;;;;;;;6.30;5.73;;;26.40;53.00;;;;;;4899460;29;20192;-87
2023/06/11 05:38:13;;;;;;;6.37;5.77;;;26.50;52.90;;;;;;4916709;29;20165;-87
2023/06/11 05:40:39;;;;;;;6.17;5.57;;;26.60;53.20;;;;;;4898847;29;20183;-87
2023/06/11 05:43:05;;;;;;;6.50;5.80;;;26.60;53.10;;;;;;4899151;29;20552;-87
2023/06/11 05:45:32;;;;;;;5.53;5.03;;;26.70;52.80;;;;;;4896835;29;20173;-87
2023/06/11 05:47:59;;;;;;;6.17;5.67;;;26.80;52.70;;;;;;4898879;29;20346;-87
2023/06/11 05:50:25;;;;;;;6.10;5.50;;;26.80;52.60;;;;;;4899003;29;20577;-87
2023/06/11 05:52:51;;;;;;;6.17;5.57;;;26.90;52.50;;;;;;4898396;29;20379;-87
2023/06/11 05:55:17;;;;;;;6.10;5.50;;;27.00;52.40;;;;;;4898502;29;20212;-87
2023/06/11 05:57:43;;;;;;;6.30;5.70;;;27.10;52.30;;;;;;4914986;29;20201;-87
2023/06/11 06:00:12;;;;;;;5.97;5.37;;;27.10;52.20;;;;;;4897827;29;20216;-87
2023/06/11 06:02:39;;;;;;;5.60;5.10;;;27.20;52.10;;;;;;4898249;29;20434;-87
2023/06/11 06:05:06;;;;;;;5.80;5.30;;;27.40;52.00;;;;;;4899070;29;20185;-87
2023/06/11 06:07:32;;;;;;;7.00;6.27;;;27.50;52.00;;;;;;4898063;29;20529;-87
2023/06/11 06:09:57;;;;;;;5.93;5.10;;;27.60;51.90;;;;;;4898163;29;20383;-87
2023/06/11 06:12:23;;;;;;;5.93;5.40;;;27.70;51.80;;;;;;4896356;29;20479;-87
2023/06/11 06:14:49;;;;;;;6.00;5.50;;;27.90;51.70;;;;;;4897200;29;20207;-87
2023/06/11 06:17:15;;;;;;;5.43;4.97;;;28.00;51.60;;;;;;4898254;29;20413;-87
2023/06/11 06:19:40;;;;;;;6.23;5.63;;;28.10;51.50;;;;;;4897591;29;20212;-87
2023/06/11 06:22:07;;;;;;;6.20;5.60;;;28.30;51.50;;;;;;4897408;29;20196;-88
2023/06/11 06:24:32;;;;;;;5.73;5.23;;;28.40;51.30;;;;;;4915944;29;20465;-87
2023/06/11 06:26:58;;;;;;;6.00;5.40;;;28.50;51.20;;;;;;4901958;29;20177;-87
2023/06/11 06:29:25;;;;;;;5.90;5.33;;;28.70;51.10;;;;;;4902387;29;20177;-87
2023/06/11 06:31:51;;;;;;;5.90;5.30;;;28.80;51.00;;;;;;4901605;29;20676;-87
2023/06/11 06:34:17;;;;;;;5.93;5.33;;;29.00;50.90;;;;;;4901194;29;20263;-87
2023/06/11 06:36:43;;;;;;;5.87;5.33;;;29.20;50.90;;;;;;4900966;29;20197;-87
2023/06/11 06:39:09;;;;;;;6.00;5.40;;;29.20;51.20;;;;;;4914921;29;20303;-87
2023/06/11 06:41:35;;;;;;;6.37;5.77;;;29.30;51.10;;;;;;4909780;29;20224;-88
2023/06/11 06:44:01;;;;;;;6.67;6.07;;;29.40;50.90;;;;;;4919343;29;20219;-87
2023/06/11 06:46:26;;;;;;;6.10;5.50;;;29.60;50.60;;;;;;4917477;29;20257;-87
2023/06/11 06:48:53;;;;;;;6.35;5.60;;;29.70;50.40;;;;;;4916637;29;20252;-87
2023/06/11 06:51:20;;;;;;;5.67;5.17;;;29.80;50.50;;;;;;4899817;29;20471;-87
2023/06/11 06:53:49;;;;;;;5.60;5.10;;;30.00;50.20;;;;;;4906582;29;20185;-87
2023/06/11 06:56:15;;;;;;;6.28;5.72;;;30.10;50.00;;;;;;4914503;29;20275;-88
2023/06/11 06:58:41;;;;;;;6.60;5.27;;;30.30;49.80;;;;;;4901322;29;20284;-87
2023/06/11 07:01:06;;;;;;;5.70;5.20;;;30.50;49.60;;;;;;4907098;29;20211;-87
2023/06/11 07:03:40;;;;;;;5.50;5.00;;;30.60;49.50;;;;;;4917353;29;20597;-87
2023/06/11 07:06:06;;;;;;;5.50;5.00;;;30.90;49.10;;;;;;4922115;29;20460;-89
2023/06/11 07:08:33;;;;;;;5.93;5.32;;;31.20;48.90;;;;;;4899551;29;20173;-88
2023/06/11 07:10:58;;;;;;;6.38;5.72;;;31.70;48.20;;;;;;4900188;29;20181;-88
2023/06/11 07:13:24;;;;;;;5.43;4.93;;;32.10;47.60;;;;;;4899480;29;20177;-88
2023/06/11 07:15:50;;;;;;;6.65;5.70;;;32.30;47.40;;;;;;4898667;29;20177;-88
2023/06/11 07:18:17;;;;;;;6.70;5.35;;;32.70;46.80;;;;;;4913775;29;20238;-88
2023/06/11 07:20:44;;;;;;;5.72;5.22;;;32.90;45.90;;;;;;4897755;29;20173;-88
2023/06/11 07:23:10;;;;;;;6.75;5.50;;;33.20;46.00;;;;;;4895275;29;20565;-88
2023/06/11 07:25:37;;;;;;;7.68;5.15;;;33.30;45.10;;;;;;4912375;29;20249;-88
2023/06/11 07:28:05;;;;;;;5.50;5.00;;;33.10;45.70;;;;;;4896983;29;20288;-88
2023/06/11 07:30:33;;;;;;;5.63;5.13;;;33.40;45.40;;;;;;4913742;29;20177;-87
2023/06/11 07:32:59;;;;;;;5.45;4.95;;;33.60;45.00;;;;;;4896811;29;20427;-88
2023/06/11 07:35:25;;;;;;;5.15;4.68;;;33.90;44.90;;;;;;4896121;29;20197;-88
2023/06/11 07:37:52;;;;;;;5.28;4.78;;;34.10;44.50;;;;;;4901282;29;20208;-87
2023/06/11 07:40:17;;;;;;;5.95;4.93;;;34.10;44.70;;;;;;4897061;29;20220;-88
2023/06/11 07:42:44;;;;;;;5.20;4.70;;;34.20;44.60;;;;;;4926185;29;20177;-87
2023/06/11 07:45:10;;;;;;;4.80;4.35;;;34.30;44.40;;;;;;4928469;29;20252;-88
2023/06/11 07:47:36;;;;;;;4.82;4.25;;;34.40;44.40;;;;;;4895688;29;20195;-87
2023/06/11 07:50:06;;;;;;;6.90;4.45;;;34.50;44.20;;;;;;4910975;29;20452;-87
2023/06/11 07:52:31;;;;;;;5.28;4.78;;;34.60;44.20;;;;;;4896702;29;20482;-88
2023/06/11 07:54:58;;;;;;;4.07;3.67;;;34.80;43.70;;;;;;4895187;29;20492;-88
2023/06/11 07:57:24;;;;;;;4.38;3.97;;;34.90;43.50;;;;;;4910865;29;20364;-88
2023/06/11 07:59:51;;;;;;;6.50;4.43;;;34.80;42.90;;;;;;4911202;29;20393;-88
2023/06/11 08:02:16;;;;;;;4.50;4.10;;;34.70;43.00;;;;;;4897397;29;20540;-88
2023/06/11 08:04:42;;;;;;;7.63;4.05;;;34.90;43.10;;;;;;4914273;29;20451;-88
2023/06/11 08:07:09;;;;;;;4.57;4.05;;;35.20;42.80;;;;;;4914838;29;20176;-88
2023/06/11 08:09:36;;;;;;;4.90;4.50;;;35.40;42.90;;;;;;4914399;29;20192;-88
2023/06/11 08:12:03;;;;;;;4.80;4.30;;;35.40;42.20;;;;;;4911970;29;20191;-88
2023/06/11 08:14:29;;;;;;;5.10;4.07;;;35.30;42.80;;;;;;4896778;29;20177;-88
2023/06/11 08:16:56;;;;;;;4.13;3.72;;;35.50;42.50;;;;;;4910461;29;20661;-88
2023/06/11 08:19:22;;;;;;;4.40;4.00;;;35.50;42.50;;;;;;4910083;29;20282;-88
2023/06/11 08:21:48;;;;;;;6.10;3.88;;;35.50;42.30;;;;;;4909812;29;20240;-88
2023/06/11 08:24:14;;;;;;;4.47;4.07;;;35.70;42.90;;;;;;4911787;29;20562;-88
2023/06/11 08:26:40;;;;;;;4.60;4.10;;;35.70;42.30;;;;;;4912056;29;20176;-88
2023/06/11 08:29:06;;;;;;;5.70;4.32;;;35.50;42.50;;;;;;4896508;29;20285;-89
2023/06/11 08:31:32;;;;;;;5.13;3.88;;;35.50;42.50;;;;;;4895385;29;20511;-88
2023/06/11 08:33:58;;;;;;;4.57;4.18;;;35.50;42.80;;;;;;4896617;29;20181;-89
2023/06/11 08:36:26;;;;;;;5.90;4.53;;;35.70;42.40;;;;;;4896257;29;20468;-88
2023/06/11 08:39:02;;;;;;;4.72;4.13;;;35.50;42.40;;;;;;4911539;29;20248;-88
2023/06/11 08:41:29;;;;;;;5.22;4.20;;;35.40;42.70;;;;;;4911360;29;20172;-88
2023/06/11 08:43:56;;;;;;;5.47;4.20;;;35.30;42.80;;;;;;4895180;29;20478;-88
2023/06/11 08:46:26;;;;;;;4.57;4.18;;;35.10;43.00;;;;;;4912619;29;20291;-88
2023/06/11 08:48:59;;;;;;;4.13;3.75;;;35.10;42.40;;;;;;4912917;29;20185;-88
2023/06/11 08:51:27;;;;;;;5.65;4.28;;;34.90;42.90;;;;;;4895768;29;20181;-88
2023/06/11 08:53:54;;;;;;;4.88;4.28;;;34.60;43.20;;;;;;4895572;29;20187;-88
2023/06/11 08:56:19;;;;;;;4.10;3.80;;;34.50;43.20;;;;;;4911432;29;20181;-88
2023/06/11 08:58:46;;;;;;;4.53;4.13;;;34.30;43.50;;;;;;4911805;29;20526;-89
2023/06/11 09:01:12;;;;;;;4.90;4.20;;;34.50;43.50;;;;;;4913554;29;20177;-88
2023/06/11 09:03:38;;;;;;;4.78;4.28;;;34.20;43.30;;;;;;4911340;29;20185;-89
2023/06/11 09:06:05;;;;;;;4.90;4.10;;;34.10;43.00;;;;;;4895747;29;20185;-89
2023/06/11 09:08:31;;;;;;;5.00;4.60;;;34.20;43.30;;;;;;4909122;29;20169;-89
2023/06/11 09:10:57;;;;;;;4.75;4.00;;;34.20;42.60;;;;;;4910082;29;20177;-88
2023/06/11 09:13:27;;;;;;;5.13;4.72;;;34.00;43.50;;;;;;4909490;29;20177;-88
2023/06/11 09:15:58;;;;;;;4.50;4.10;;;34.10;43.20;;;;;;4894765;29;20179;-89
2023/06/11 09:18:25;;;;;;;5.22;4.18;;;34.20;42.80;;;;;;4893396;29;20177;-88
2023/06/11 09:20:56;;;;;;;6.88;4.28;;;34.20;43.00;;;;;;4894094;29;20515;-89
2023/06/11 09:23:34;;;;;;;4.82;4.30;;;34.00;43.20;;;;;;4891394;29;20255;-88
2023/06/11 09:26:00;;;;;;;4.47;4.07;;;33.70;43.30;;;;;;4893032;29;20173;-88
2023/06/11 09:28:34;;;;;;;4.55;4.20;;;33.70;43.10;;;;;;4893567;29;20598;-88
2023/06/11 09:31:01;;;;;;;8.07;4.45;;;33.60;43.70;;;;;;4916369;29;20177;-88
2023/06/11 09:33:28;;;;;;;4.75;4.35;;;33.70;42.60;;;;;;4892369;29;20256;-88
2023/06/11 09:35:54;;;;;;;5.40;4.90;;;33.70;42.90;;;;;;4894019;29;20299;-89
2023/06/11 09:38:21;;;;;;;5.25;4.35;;;33.80;42.20;;;;;;4908007;29;20460;-88
2023/06/11 09:40:51;;;;;;;7.53;4.95;;;33.60;43.20;;;;;;4907958;29;20184;-88
2023/06/11 09:43:21;;;;;;;4.65;4.20;;;33.60;42.30;;;;;;4909851;29;20178;-88
2023/06/11 09:45:52;;;;;;;5.47;4.90;;;33.40;42.80;;;;;;4908597;29;20181;-89
2023/06/11 09:48:20;;;;;;;7.63;4.90;;;33.10;42.30;;;;;;4901796;29;20279;-88
2023/06/11 09:50:51;;;;;;;6.35;4.60;;;31.80;43.60;;;;;;4906685;29;20278;-88
2023/06/11 09:53:24;;;;;;;6.88;5.20;;;31.90;43.90;;;;;;4906498;29;20178;-88
2023/06/11 09:55:50;;;;;;;5.15;4.65;;;31.00;43.50;;;;;;4907133;29;20235;-88
2023/06/11 09:58:23;;;;;;;5.80;4.70;;;30.70;44.20;;;;;;4906371;29;20216;-88
2023/06/11 10:00:50;;;;;;;5.38;4.80;;;31.30;45.00;;;;;;4910892;29;20243;-88
2023/06/11 10:03:17;;;;;;;5.00;4.55;;;31.80;43.50;;;;;;4902801;29;20428;-89
2023/06/11 10:05:44;;;;;;;5.28;4.53;;;31.90;43.60;;;;;;4912101;29;20176;-89
2023/06/11 10:08:22;;;;;;;7.55;4.50;;;32.00;44.10;;;;;;4902159;29;20177;-89
2023/06/11 10:10:54;;;;;;;5.97;4.85;;;31.90;43.80;;;;;;4910642;29;20441;-89
2023/06/11 10:13:35;;;;;;;5.22;4.65;;;31.80;43.10;;;;;;4909629;29;20169;-88
2023/06/11 10:16:08;;;;;;;5.72;5.22;;;31.70;42.60;;;;;;4909248;29;20181;-89
2023/06/11 10:18:34;;;;;;;5.68;4.68;;;31.40;42.40;;;;;;4897140;29;20268;-88
2023/06/11 10:21:02;;;;;;;6.70;5.35;;;30.80;43.50;;;;;;4894087;29;20199;-88
2023/06/11 10:23:41;;;;;;;5.53;5.03;;;31.20;43.30;;;;;;4895308;29;20303;-88
2023/06/11 10:26:09;;;;;;;6.32;4.88;;;30.50;42.60;;;;;;4912699;29;20180;-88
2023/06/11 10:28:49;;;;;;;6.88;4.57;;;30.40;42.70;;;;;;4911417;29;20474;-88
2023/06/11 10:31:29;;;;;;;5.15;4.55;;;31.00;43.50;;;;;;4907342;29;20184;-89
2023/06/11 10:34:02;;;;;;;5.38;4.78;;;31.40;43.30;;;;;;4912174;29;20173;-88
2023/06/11 10:36:41;;;;;;;4.75;4.35;;;31.70;43.20;;;;;;4926482;29;20434;-89
2023/06/11 10:39:09;;;;;;;6.30;5.00;;;31.80;42.10;;;;;;4910551;29;20267;-88
2023/06/11 10:41:39;;;;;;;5.20;4.70;;;31.80;42.70;;;;;;4911130;29;20210;-89
2023/06/11 10:44:05;;;;;;;5.63;4.55;;;31.80;43.20;;;;;;4907855;29;20170;-88
2023/06/11 10:46:31;;;;;;;6.72;4.72;;;31.90;42.50;;;;;;4911366;29;20259;-88
2023/06/11 10:48:57;;;;;;;7.57;5.13;;;31.80;42.50;;;;;;4909608;29;20264;-88
2023/06/11 10:51:23;;;;;;;6.35;4.90;;;31.50;42.70;;;;;;4909221;29;20192;-87
2023/06/11 10:53:58;;;;;;;5.18;4.70;;;31.60;42.90;;;;;;4903193;29;20212;-88
2023/06/11 10:56:26;;;;;;;5.63;4.47;;;31.50;43.30;;;;;;4893078;29;20212;-88
2023/06/11 10:58:52;;;;;;;6.25;4.88;;;31.50;43.50;;;;;;4893205;29;20269;-88
2023/06/11 11:01:24;;;;;;;5.65;5.05;;;31.60;43.80;;;;;;4895918;29;20212;-88
2023/06/11 11:03:52;;;;;;;6.45;4.88;;;31.80;42.80;;;;;;4913356;29;20430;-89
2023/06/11 11:06:26;;;;;;;5.38;4.88;;;31.80;42.50;;;;;;4913202;29;20278;-88
2023/06/11 11:08:55;;;;;;;5.05;4.65;;;31.50;43.60;;;;;;4897635;29;20180;-88
2023/06/11 11:11:24;;;;;;;5.25;4.75;;;31.50;43.70;;;;;;4894386;29;20184;-88
2023/06/11 11:13:50;;;;;;;5.90;4.70;;;31.50;44.10;;;;;;4893608;29;20177;-88
2023/06/11 11:16:23;;;;;;;5.82;4.47;;;31.60;42.10;;;;;;4908907;29;20188;-87
2023/06/11 11:18:50;;;;;;;5.60;5.10;;;31.60;43.50;;;;;;4910361;29;20208;-88
2023/06/11 11:21:16;;;;;;;5.60;5.10;;;31.60;42.20;;;;;;4893646;29;20463;-88
2023/06/11 11:23:46;;;;;;;5.68;5.18;;;31.80;42.60;;;;;;4909467;29;20391;-87
2023/06/11 11:26:11;;;;;;;6.53;5.07;;;31.70;41.90;;;;;;4909733;29;20268;-87
2023/06/11 11:28:37;;;;;;;6.65;4.90;;;31.70;43.20;;;;;;4909812;29;20497;-88
2023/06/11 11:31:05;;;;;;;6.00;5.40;;;31.70;42.90;;;;;;4908654;29;20181;-87
2023/06/11 11:33:34;;;;;;;5.95;4.82;;;31.60;42.20;;;;;;4894103;29;20205;-87
2023/06/11 11:36:03;;;;;;;5.93;5.30;;;31.50;43.50;;;;;;4895301;29;20258;-87
2023/06/11 11:38:36;;;;;;;5.68;5.18;;;31.50;43.70;;;;;;4895491;29;20628;-87
2023/06/11 11:41:03;;;;;;;5.25;4.85;;;31.50;43.80;;;;;;4893549;29;20272;-87
2023/06/11 11:43:42;;;;;;;6.20;4.90;;;31.50;44.20;;;;;;4911419;29;20196;-87
2023/06/11 11:46:18;;;;;;;6.15;5.50;;;31.50;44.40;;;;;;4894484;29;20187;-88
2023/06/11 11:48:44;;;;;;;5.32;4.82;;;31.40;42.80;;;;;;4895938;29;20173;-87
2023/06/11 11:51:13;;;;;;;5.82;5.32;;;31.40;44.20;;;;;;4911487;29;20169;-87
2023/06/11 11:53:39;;;;;;;5.95;5.15;;;31.40;44.10;;;;;;4892363;29;20181;-88
2023/06/11 11:56:05;;;;;;;6.68;5.45;;;31.40;44.40;;;;;;4910482;29;20636;-87
2023/06/11 11:58:37;;;;;;;6.38;5.53;;;31.40;42.80;;;;;;4909692;29;20189;-88
2023/06/11 12:01:03;;;;;;;10.98;6.57;;;31.40;43.90;;;;;;4892485;29;20187;-87
2023/06/11 12:03:29;;;;;;;5.68;5.05;;;31.40;43.70;;;;;;4909221;29;20169;-87
2023/06/11 12:05:59;;;;;;;5.75;5.20;;;31.40;44.40;;;;;;4908755;29;20177;-88
2023/06/11 12:08:26;;;;;;;6.93;5.95;;;31.50;43.60;;;;;;4891382;29;20200;-87
2023/06/11 12:10:51;;;;;;;5.63;5.13;;;31.40;42.30;;;;;;4893708;29;20493;-87
2023/06/11 12:13:18;;;;;;;7.28;5.03;;;31.30;43.40;;;;;;4910324;29;20501;-87
2023/06/11 12:15:43;;;;;;;6.20;4.90;;;31.30;43.00;;;;;;4909691;29;20200;-88
2023/06/11 12:18:09;;;;;;;5.45;4.95;;;31.20;42.50;;;;;;4908689;29;20188;-88
2023/06/11 12:20:38;;;;;;;5.90;5.03;;;31.20;43.10;;;;;;4913926;29;20263;-88
2023/06/11 12:23:04;;;;;;;6.53;5.45;;;31.20;44.00;;;;;;4893819;29;20192;-88
2023/06/11 12:25:32;;;;;;;12.35;5.47;;;31.30;42.30;;;;;;4894102;29;20400;-88
2023/06/11 12:28:01;;;;;;;5.60;5.10;;;31.30;41.40;;;;;;4896729;29;20418;-88
2023/06/11 12:30:31;;;;;;;6.35;5.43;;;31.30;42.70;;;;;;4894816;29;20458;-88
2023/06/11 12:32:57;;;;;;;5.85;5.35;;;31.30;43.20;;;;;;4896940;29;20181;-88
2023/06/11 12:35:24;;;;;;;5.72;5.22;;;31.30;42.70;;;;;;4892747;29;20200;-88
2023/06/11 12:37:50;;;;;;;7.70;5.45;;;31.20;42.20;;;;;;4914561;29;20200;-88
2023/06/11 12:40:17;;;;;;;6.20;5.60;;;31.10;42.00;;;;;;4908107;29;20201;-88
2023/06/11 12:42:43;;;;;;;5.85;5.20;;;31.00;42.10;;;;;;4899186;29;20177;-87
2023/06/11 12:45:10;;;;;;;5.93;5.43;;;30.80;42.00;;;;;;4895248;29;20195;-88
2023/06/11 12:47:36;;;;;;;5.82;5.32;;;30.80;41.60;;;;;;4894481;29;20242;-88